Hauptseite
METAR-TAF:

METAR-TAF

Flughäfen :

Flughafen Curaçao

Curaçao, Niederländische Antillen

Breite: 12-12N, Länge: 068-58W, Höhe: 9 m

Beobachtung

Neuester Wetterbericht von vor 45 Minuten, um 04:00 UTC
Wind 11 kt aus Ost
Temperatur 25°C
Luftfeuchtigkeit 79%
Luftdruck 1015 hPa
Sichtweite 10 km oder mehr

METAR: TNCC 160400Z AUTO 10011KT 9999 NCD 25/21 Q1015 NOSIG

Zeit: 00:45 (04:45 UTC)

Prognose

Neuester Wetterbericht von vor 7 Stunden und 15 Minuten, um 21:30 UTC
Gültige Prognose vom 16 um 00 UTC bis 16 um 24 UTC
Wind 11 kt aus Ost
Sichtweite 10 km oder mehr
Leicht bewölkt in der Höhe von 1800 ft
Zeitweise
vom 16 um 06 UTC bis 16 um 12 UTC
Durchbrochene Bewölkung in der Höhe von 1400 ft

TAF: TNCC 152130Z 1600/1624 10011KT 9999 FEW018 TEMPO 1606/1612 BKN014

Wetterbeobachtungen und Prognosen von mehr als 4000 Flughäfen (METAR und TAF Bericht).

Die verfügbaren Stationen werden durch gelbe und rote Markierungen auf der Karte dargestellt.

Führen Sie die Maus auf sie, um den Namen der Station zu sehen.

Darauf klicken, um die Beobachtung von Wetterbeobachtungen und Prognosen zu sehen.

Um die Karte zu ändern : klicken Sie auf den grünen Tasten mit einem schwarzen Kreuz Zum Vergrößern, auf den grünen Button mit einem Gedankenstrich zu verkleinern, oder auf die grünen Pfeile für benachbarte Karten.


METAR-TAF: